Time,TemperatureF,DewpointF,PressureIn,WindDirection,WindDirectionDegrees,WindSpeedMPH,WindSpeedGustMPH,Humidity,HourlyPrecipIn,Conditions,Clouds,dailyrainin,SoftwareType,DateUTC
2013-01-27 00:00:00,9.8,2.3,30.29,South,180,2.0,2.0,71,0.00,,,0.00,Wunderground v.1.13,2013-01-27 05:00:00,
2013-01-27 00:03:00,9.8,2.0,30.29,North,5,1.0,2.0,70,0.00,,,0.00,Wunderground v.1.13,2013-01-27 05:03:00,
2013-01-27 00:04:00,9.9,2.1,30.29,North,5,0.0,2.0,70,0.00,,,0.00,Wunderground v.1.13,2013-01-27 05:04:00,
2013-01-27 00:09:00,9.9,2.1,30.29,SSW,201,1.0,1.0,70,0.00,,,0.00,Wunderground v.1.13,2013-01-27 05:09:00,
2013-01-27 00:15:00,9.4,1.9,30.29,SE,125,2.0,2.0,71,0.00,,,0.00,Wunderground v.1.13,2013-01-27 05:15:00,
2013-01-27 00:21:00,8.8,1.3,30.30,ESE,103,2.0,2.0,71,0.00,,,0.00,Wunderground v.1.13,2013-01-27 05:21:00,
2013-01-27 00:26:00,9.2,2.0,30.29,NNE,15,1.0,5.0,72,0.00,,,0.00,Wunderground v.1.13,2013-01-27 05:26:00,
2013-01-27 00:31:00,9.6,2.1,30.29,SSE,155,4.0,4.0,71,0.00,,,0.00,Wunderground v.1.13,2013-01-27 05:31:00,
2013-01-27 00:36:00,9.8,2.3,30.29,North,355,2.0,4.0,71,0.00,,,0.00,Wunderground v.1.13,2013-01-27 05:36:00,
2013-01-27 00:42:00,10.1,2.3,30.30,SE,131,2.0,3.0,70,0.00,,,0.00,Wunderground v.1.13,2013-01-27 05:42:00,
2013-01-27 00:48:00,9.9,2.1,30.29,NE,46,1.0,3.0,70,0.00,,,0.00,Wunderground v.1.13,2013-01-27 05:48:00,
2013-01-27 00:53:00,9.9,2.1,30.30,WNW,285,1.0,1.0,70,0.00,,,0.00,Wunderground v.1.13,2013-01-27 05:53:00,
2013-01-27 00:59:00,10.1,2.3,30.30,NW,309,2.0,2.0,70,0.00,,,0.00,Wunderground v.1.13,2013-01-27 05:59:00,
2013-01-27 01:05:00,10.4,2.2,30.30,East,94,0.0,2.0,69,0.00,,,0.00,Wunderground v.1.13,2013-01-27 06:05:00,
2013-01-27 01:10:00,10.4,2.2,30.31,ENE,75,0.0,3.0,69,0.00,,,0.00,Wunderground v.1.13,2013-01-27 06:10:00,
2013-01-27 01:17:00,10.5,2.3,30.31,ENE,60,0.0,7.0,69,0.00,,,0.00,Wunderground v.1.13,2013-01-27 06:17:00,
2013-01-27 01:22:00,10.8,2.6,30.31,NW,313,2.0,3.0,69,0.00,,,0.00,Wunderground v.1.13,2013-01-27 06:22:00,
2013-01-27 01:28:00,10.9,2.4,30.31,North,10,0.0,4.0,68,0.00,,,0.00,Wunderground v.1.13,2013-01-27 06:28:00,
2013-01-27 01:34:00,11.0,2.5,30.30,WSW,253,3.0,3.0,68,0.00,,,0.00,Wunderground v.1.13,2013-01-27 06:34:00,
2013-01-27 01:40:00,10.9,2.4,30.30,NNE,18,1.0,3.0,68,0.00,,,0.00,Wunderground v.1.13,2013-01-27 06:40:00,
2013-01-27 01:45:00,10.8,2.3,30.31,NNW,344,3.0,3.0,68,0.00,,,0.00,Wunderground v.1.13,2013-01-27 06:45:00,
2013-01-27 01:51:00,10.9,2.4,30.31,East,84,2.0,3.0,68,0.00,,,0.00,Wunderground v.1.13,2013-01-27 06:51:00,
2013-01-27 01:56:00,10.8,2.3,30.31,NNE,33,1.0,3.0,68,0.00,,,0.00,Wunderground v.1.13,2013-01-27 06:56:00,
2013-01-27 02:01:00,10.6,2.1,30.31,WNW,302,1.0,6.0,68,0.00,,,0.00,Wunderground v.1.13,2013-01-27 07:01:00,
2013-01-27 02:06:00,10.8,2.6,30.32,ENE,76,3.0,3.0,69,0.00,,,0.00,Wunderground v.1.13,2013-01-27 07:06:00,
2013-01-27 02:13:00,10.8,2.6,30.32,SE,146,1.0,3.0,69,0.00,,,0.00,Wunderground v.1.13,2013-01-27 07:13:00,
2013-01-27 02:19:00,10.5,2.3,30.32,East,88,6.0,6.0,69,0.00,,,0.00,Wunderground v.1.13,2013-01-27 07:19:00,
2013-01-27 02:24:00,10.2,2.0,30.32,NW,313,0.0,3.0,69,0.00,,,0.00,Wunderground v.1.13,2013-01-27 07:24:00,
2013-01-27 02:29:00,10.1,2.3,30.33,NW,313,1.0,2.0,70,0.00,,,0.00,Wunderground v.1.13,2013-01-27 07:29:00,
2013-01-27 02:35:00,10.3,2.8,30.33,NNE,33,0.0,3.0,71,0.00,,,0.00,Wunderground v.1.13,2013-01-27 07:35:00,
2013-01-27 02:40:00,10.4,2.9,30.33,SE,134,2.0,3.0,71,0.00,,,0.00,Wunderground v.1.13,2013-01-27 07:40:00,
2013-01-27 02:46:00,10.8,3.2,30.33,NNE,22,0.0,2.0,71,0.00,,,0.00,Wunderground v.1.13,2013-01-27 07:46:00,
2013-01-27 02:51:00,10.9,3.0,30.33,ENE,78,2.0,4.0,70,0.00,,,0.00,Wunderground v.1.13,2013-01-27 07:51:00,
2013-01-27 02:56:00,10.8,3.2,30.33,ENE,74,0.0,2.0,71,0.00,,,0.00,Wunderground v.1.13,2013-01-27 07:56:00,
2013-01-27 03:01:00,10.8,3.2,30.33,ENE,72,1.0,4.0,71,0.00,,,0.00,Wunderground v.1.13,2013-01-27 08:01:00,
2013-01-27 03:07:00,10.8,3.2,30.34,ESE,113,4.0,4.0,71,0.00,,,0.00,Wunderground v.1.13,2013-01-27 08:07:00,
2013-01-27 03:12:00,10.8,3.2,30.34,East,96,1.0,2.0,71,0.00,,,0.00,Wunderground v.1.13,2013-01-27 08:12:00,
2013-01-27 03:17:00,10.9,3.3,30.34,NNE,29,1.0,3.0,71,0.00,,,0.00,Wunderground v.1.13,2013-01-27 08:17:00,
2013-01-27 03:22:00,11.0,3.1,30.33,SE,137,1.0,3.0,70,0.00,,,0.00,Wunderground v.1.13,2013-01-27 08:22:00,
2013-01-27 03:27:00,10.8,3.2,30.33,NE,43,2.0,7.0,71,0.00,,,0.00,Wunderground v.1.13,2013-01-27 08:27:00,
2013-01-27 03:33:00,10.8,3.2,30.33,NE,40,0.0,3.0,71,0.00,,,0.00,Wunderground v.1.13,2013-01-27 08:33:00,
2013-01-27 03:38:00,10.6,3.0,30.33,NNE,28,4.0,7.0,71,0.00,,,0.00,Wunderground v.1.13,2013-01-27 08:38:00,
2013-01-27 03:44:00,10.6,3.3,30.34,ENE,71,0.0,2.0,72,0.00,,,0.00,Wunderground v.1.13,2013-01-27 08:44:00,
2013-01-27 03:49:00,10.6,3.3,30.34,ENE,71,0.0,1.0,72,0.00,,,0.00,Wunderground v.1.13,2013-01-27 08:49:00,
2013-01-27 03:55:00,10.6,3.0,30.34,ENE,76,0.0,1.0,71,0.00,,,0.00,Wunderground v.1.13,2013-01-27 08:55:00,
2013-01-27 04:00:00,10.6,3.0,30.34,NE,46,0.0,2.0,71,0.00,,,0.00,Wunderground v.1.13,2013-01-27 09:00:00,
2013-01-27 04:05:00,10.5,2.9,30.34,East,101,2.0,3.0,71,0.00,,,0.00,Wunderground v.1.13,2013-01-27 09:05:00,
2013-01-27 04:10:00,10.4,2.9,30.34,SE,124,1.0,1.0,71,0.00,,,0.00,Wunderground v.1.13,2013-01-27 09:10:00,
2013-01-27 04:15:00,10.3,2.8,30.34,East,89,1.0,2.0,71,0.00,,,0.00,Wunderground v.1.13,2013-01-27 09:15:00,
2013-01-27 04:20:00,10.0,2.8,30.34,South,190,3.0,3.0,72,0.00,,,0.00,Wunderground v.1.13,2013-01-27 09:20:00,
2013-01-27 04:25:00,10.1,2.9,30.35,ENE,77,3.0,5.0,72,0.00,,,0.00,Wunderground v.1.13,2013-01-27 09:25:00,
2013-01-27 04:30:00,10.2,3.0,30.35,SE,129,0.0,1.0,72,0.00,,,0.00,Wunderground v.1.13,2013-01-27 09:30:00,
2013-01-27 04:35:00,10.1,2.9,30.35,East,92,2.0,2.0,72,0.00,,,0.00,Wunderground v.1.13,2013-01-27 09:35:00,
2013-01-27 04:40:00,9.8,2.6,30.35,East,85,0.0,1.0,72,0.00,,,0.00,Wunderground v.1.13,2013-01-27 09:40:00,
2013-01-27 04:45:00,9.7,2.5,30.35,SE,144,1.0,1.0,72,0.00,,,0.00,Wunderground v.1.13,2013-01-27 09:45:00,
2013-01-27 04:50:00,9.4,2.5,30.35,SSE,163,1.0,1.0,73,0.00,,,0.00,Wunderground v.1.13,2013-01-27 09:50:00,
2013-01-27 04:55:00,8.9,2.3,30.35,SSE,163,0.0,1.0,74,0.00,,,0.00,Wunderground v.1.13,2013-01-27 09:55:00,
2013-01-27 05:00:00,8.6,2.0,30.35,SSE,163,0.0,1.0,74,0.00,,,0.00,Wunderground v.1.13,2013-01-27 10:00:00,
2013-01-27 05:05:00,8.2,1.6,30.35,SSE,165,0.0,0.0,74,0.00,,,0.00,Wunderground v.1.13,2013-01-27 10:05:00,
2013-01-27 05:11:00,8.0,1.4,30.35,ESE,121,2.0,2.0,74,0.00,,,0.00,Wunderground v.1.13,2013-01-27 10:11:00,
2013-01-27 05:17:00,7.9,1.3,30.36,ENE,65,1.0,1.0,74,0.00,,,0.00,Wunderground v.1.13,2013-01-27 10:17:00,
2013-01-27 05:22:00,7.9,1.6,30.36,East,98,2.0,2.0,75,0.00,,,0.00,Wunderground v.1.13,2013-01-27 10:22:00,
2013-01-27 05:27:00,8.1,1.5,30.36,South,173,0.0,1.0,74,0.00,,,0.00,Wunderground v.1.13,2013-01-27 10:27:00,
2013-01-27 05:32:00,8.4,1.5,30.36,SSE,147,0.0,1.0,73,0.00,,,0.00,Wunderground v.1.13,2013-01-27 10:32:00,
2013-01-27 05:37:00,8.3,1.4,30.36,SSE,147,2.0,2.0,73,0.00,,,0.00,Wunderground v.1.13,2013-01-27 10:37:00,
2013-01-27 05:42:00,7.7,1.1,30.36,SSE,147,0.0,1.0,74,0.00,,,0.00,Wunderground v.1.13,2013-01-27 10:42:00,
2013-01-27 05:48:00,7.1,0.6,30.36,SSE,147,1.0,1.0,74,0.00,,,0.00,Wunderground v.1.13,2013-01-27 10:48:00,
2013-01-27 05:53:00,6.7,0.5,30.36,SSE,158,1.0,1.0,75,0.00,,,0.00,Wunderground v.1.13,2013-01-27 10:53:00,
2013-01-27 05:58:00,6.8,0.8,30.37,SSE,150,0.0,1.0,76,0.00,,,0.00,Wunderground v.1.13,2013-01-27 10:58:00,
2013-01-27 06:03:00,6.9,0.6,30.36,SE,141,2.0,2.0,75,0.00,,,0.00,Wunderground v.1.13,2013-01-27 11:03:00,
2013-01-27 06:08:00,6.7,0.5,30.36,SE,141,0.0,1.0,75,0.00,,,0.00,Wunderground v.1.13,2013-01-27 11:08:00,
2013-01-27 06:13:00,6.5,0.5,30.37,SE,142,0.0,1.0,76,0.00,,,0.00,Wunderground v.1.13,2013-01-27 11:13:00,
2013-01-27 06:18:00,6.6,0.6,30.37,ESE,115,1.0,2.0,76,0.00,,,0.00,Wunderground v.1.13,2013-01-27 11:18:00,
2013-01-27 06:23:00,6.8,0.8,30.37,SSE,149,0.0,3.0,76,0.00,,,0.00,Wunderground v.1.13,2013-01-27 11:23:00,
2013-01-27 06:28:00,7.1,0.8,30.38,SSW,194,0.0,3.0,75,0.00,,,0.00,Wunderground v.1.13,2013-01-27 11:28:00,
2013-01-27 06:34:00,6.9,0.4,30.38,South,172,2.0,3.0,74,0.00,,,0.00,Wunderground v.1.13,2013-01-27 11:34:00,
2013-01-27 06:39:00,7.6,1.0,30.38,WNW,298,2.0,6.0,74,0.00,,,0.00,Wunderground v.1.13,2013-01-27 11:39:00,
2013-01-27 06:45:00,8.8,1.0,30.38,SSE,160,0.0,2.0,70,0.00,,,0.00,Wunderground v.1.13,2013-01-27 11:45:00,
2013-01-27 06:52:00,10.1,0.7,30.39,SSE,158,2.0,10.0,65,0.00,,,0.00,Wunderground v.1.13,2013-01-27 11:52:00,
2013-01-27 07:03:00,10.1,0.7,30.39,SSE,158,2.0,10.0,65,0.00,,,0.00,Wunderground v.1.13,2013-01-27 12:03:00,
2013-01-27 07:08:00,10.2,0.4,30.40,SE,129,2.0,8.0,64,0.00,,,0.00,Wunderground v.1.13,2013-01-27 12:08:00,
2013-01-27 07:14:00,9.8,0.4,30.40,ENE,65,5.0,5.0,65,0.00,,,0.00,Wunderground v.1.13,2013-01-27 12:14:00,
2013-01-27 07:19:00,10.1,0.3,30.40,ENE,69,0.0,3.0,64,0.00,,,0.00,Wunderground v.1.13,2013-01-27 12:19:00,
2013-01-27 07:24:00,10.1,0.0,30.40,SSE,155,1.0,2.0,63,0.00,,,0.00,Wunderground v.1.13,2013-01-27 12:24:00,
2013-01-27 07:29:00,10.0,0.2,30.41,South,176,4.0,4.0,64,0.00,,,0.00,Wunderground v.1.13,2013-01-27 12:29:00,
2013-01-27 07:35:00,9.9,0.1,30.41,SW,226,4.0,7.0,64,0.00,,,0.00,Wunderground v.1.13,2013-01-27 12:35:00,
2013-01-27 07:40:00,10.1,0.3,30.41,WSW,250,3.0,5.0,64,0.00,,,0.00,Wunderground v.1.13,2013-01-27 12:40:00,
2013-01-27 07:45:00,10.0,0.2,30.41,SW,236,2.0,6.0,64,0.00,,,0.00,Wunderground v.1.13,2013-01-27 12:45:00,
2013-01-27 07:50:00,9.9,0.1,30.41,SW,236,2.0,4.0,64,0.00,,,0.00,Wunderground v.1.13,2013-01-27 12:50:00,
2013-01-27 07:55:00,9.7,0.0,30.41,WSW,250,6.0,7.0,64,0.00,,,0.00,Wunderground v.1.13,2013-01-27 12:55:00,
2013-01-27 08:02:00,10.2,0.1,30.41,West,266,7.0,7.0,63,0.00,,,0.00,Wunderground v.1.13,2013-01-27 13:02:00,
2013-01-27 08:07:00,10.2,0.4,30.41,WNW,290,6.0,9.0,64,0.00,,,0.00,Wunderground v.1.13,2013-01-27 13:07:00,
2013-01-27 08:12:00,10.3,0.2,30.42,WSW,257,7.0,12.0,63,0.00,,,0.00,Wunderground v.1.13,2013-01-27 13:12:00,
2013-01-27 08:17:00,10.3,0.2,30.42,SSW,209,6.0,10.0,63,0.00,,,0.00,Wunderground v.1.13,2013-01-27 13:17:00,
2013-01-27 08:22:00,10.5,0.0,30.43,WSW,258,6.0,8.0,62,0.00,,,0.00,Wunderground v.1.13,2013-01-27 13:22:00,
2013-01-27 08:27:00,10.6,0.5,30.42,WSW,243,7.0,7.0,63,0.00,,,0.00,Wunderground v.1.13,2013-01-27 13:27:00,
2013-01-27 08:32:00,10.8,0.3,30.43,NW,310,3.0,11.0,62,0.00,,,0.00,Wunderground v.1.13,2013-01-27 13:32:00,
2013-01-27 08:37:00,11.0,0.5,30.43,West,267,3.0,7.0,62,0.00,,,0.00,Wunderground v.1.13,2013-01-27 13:37:00,
2013-01-27 08:42:00,11.4,0.9,30.43,SSW,202,4.0,6.0,62,0.00,,,0.00,Wunderground v.1.13,2013-01-27 13:42:00,
2013-01-27 08:48:00,11.6,0.4,30.43,West,270,7.0,11.0,60,0.00,,,0.00,Wunderground v.1.13,2013-01-27 13:48:00,
2013-01-27 08:53:00,11.7,0.1,30.44,West,276,4.0,11.0,59,0.00,,,0.00,Wunderground v.1.13,2013-01-27 13:53:00,
2013-01-27 08:58:00,11.9,0.3,30.44,WSW,248,5.0,10.0,59,0.00,,,0.00,Wunderground v.1.13,2013-01-27 13:58:00,
2013-01-27 09:03:00,12.2,0.6,30.44,West,271,6.0,12.0,59,0.00,,,0.00,Wunderground v.1.13,2013-01-27 14:03:00,
2013-01-27 09:08:00,12.4,0.8,30.44,West,267,8.0,8.0,59,0.00,,,0.00,Wunderground v.1.13,2013-01-27 14:08:00,
2013-01-27 09:13:00,12.6,1.0,30.44,WNW,291,3.0,10.0,59,0.00,,,0.00,Wunderground v.1.13,2013-01-27 14:13:00,
2013-01-27 09:19:00,12.9,0.5,30.45,WSW,247,5.0,11.0,57,0.00,,,0.00,Wunderground v.1.13,2013-01-27 14:19:00,
2013-01-27 09:24:00,13.2,0.8,30.45,West,265,7.0,9.0,57,0.00,,,0.00,Wunderground v.1.13,2013-01-27 14:24:00,
2013-01-27 09:29:00,13.5,1.1,30.45,SW,226,5.0,7.0,57,0.00,,,0.00,Wunderground v.1.13,2013-01-27 14:29:00,
2013-01-27 09:34:00,13.6,1.2,30.45,WNW,284,3.0,7.0,57,0.00,,,0.00,Wunderground v.1.13,2013-01-27 14:34:00,
2013-01-27 09:39:00,13.9,1.1,30.45,West,274,6.0,11.0,56,0.00,,,0.00,Wunderground v.1.13,2013-01-27 14:39:00,
2013-01-27 09:45:00,14.2,1.0,30.45,WNW,294,3.0,12.0,55,0.00,,,0.00,Wunderground v.1.13,2013-01-27 14:45:00,
2013-01-27 09:50:00,14.6,1.7,30.45,West,261,4.0,10.0,56,0.00,,,0.00,Wunderground v.1.13,2013-01-27 14:50:00,
2013-01-27 09:55:00,14.8,1.5,30.45,West,276,8.0,12.0,55,0.00,,,0.00,Wunderground v.1.13,2013-01-27 14:55:00,
2013-01-27 10:00:00,15.0,1.7,30.45,West,267,4.0,7.0,55,0.00,,,0.00,Wunderground v.1.13,2013-01-27 15:00:00,
2013-01-27 10:05:00,15.2,1.9,30.45,West,270,4.0,8.0,55,0.00,,,0.00,Wunderground v.1.13,2013-01-27 15:05:00,
2013-01-27 10:10:00,15.4,2.1,30.46,WSW,256,4.0,9.0,55,0.00,,,0.00,Wunderground v.1.13,2013-01-27 15:10:00,
2013-01-27 10:15:00,15.7,2.0,30.46,WNW,292,2.0,4.0,54,0.00,,,0.00,Wunderground v.1.13,2013-01-27 15:15:00,
2013-01-27 10:20:00,16.0,2.3,30.46,West,270,5.0,12.0,54,0.00,,,0.00,Wunderground v.1.13,2013-01-27 15:20:00,
2013-01-27 10:25:00,16.1,1.9,30.47,West,271,5.0,9.0,53,0.00,,,0.00,Wunderground v.1.13,2013-01-27 15:25:00,
2013-01-27 10:30:00,16.2,1.2,30.47,NW,311,4.0,6.0,51,0.00,,,0.00,Wunderground v.1.13,2013-01-27 15:30:00,
2013-01-27 10:35:00,16.5,1.9,30.47,NW,312,2.0,5.0,52,0.00,,,0.00,Wunderground v.1.13,2013-01-27 15:35:00,
2013-01-27 10:41:00,16.9,1.4,30.48,West,273,2.0,7.0,50,0.00,,,0.00,Wunderground v.1.13,2013-01-27 15:41:00,
2013-01-27 10:46:00,17.3,2.2,30.47,NW,312,2.0,8.0,51,0.00,,,0.00,Wunderground v.1.13,2013-01-27 15:46:00,
2013-01-27 10:51:00,17.6,2.5,30.47,NW,309,3.0,4.0,51,0.00,,,0.00,Wunderground v.1.13,2013-01-27 15:51:00,
2013-01-27 10:56:00,18.0,2.5,30.48,West,273,8.0,8.0,50,0.00,,,0.00,Wunderground v.1.13,2013-01-27 15:56:00,
2013-01-27 11:01:00,18.3,1.9,30.48,West,273,5.0,8.0,48,0.00,,,0.00,Wunderground v.1.13,2013-01-27 16:01:00,
2013-01-27 11:07:00,18.3,2.3,30.48,West,263,6.0,11.0,49,0.00,,,0.00,Wunderground v.1.13,2013-01-27 16:07:00,
2013-01-27 11:12:00,18.5,2.5,30.47,SW,221,4.0,8.0,49,0.00,,,0.00,Wunderground v.1.13,2013-01-27 16:12:00,
2013-01-27 11:17:00,18.6,2.6,30.48,WSW,252,5.0,5.0,49,0.00,,,0.00,Wunderground v.1.13,2013-01-27 16:17:00,
2013-01-27 11:22:00,18.7,3.1,30.47,WNW,288,3.0,7.0,50,0.00,,,0.00,Wunderground v.1.13,2013-01-27 16:22:00,
2013-01-27 11:27:00,18.9,2.9,30.47,WSW,242,5.0,8.0,49,0.00,,,0.00,Wunderground v.1.13,2013-01-27 16:27:00,
2013-01-27 11:32:00,18.9,2.4,30.47,NW,306,2.0,9.0,48,0.00,,,0.00,Wunderground v.1.13,2013-01-27 16:32:00,
2013-01-27 11:39:00,19.3,2.8,30.47,West,267,3.0,6.0,48,0.00,,,0.00,Wunderground v.1.13,2013-01-27 16:39:00,
2013-01-27 11:44:00,19.8,3.7,30.46,West,273,2.0,5.0,49,0.00,,,0.00,Wunderground v.1.13,2013-01-27 16:44:00,
2013-01-27 11:49:00,20.0,3.4,30.46,NNW,338,1.0,9.0,48,0.00,,,0.00,Wunderground v.1.13,2013-01-27 16:49:00,
2013-01-27 11:55:00,19.8,3.7,30.46,WNW,288,2.0,4.0,49,0.00,,,0.00,Wunderground v.1.13,2013-01-27 16:55:00,
2013-01-27 12:00:00,19.9,3.8,30.46,WNW,290,2.0,4.0,49,0.00,,,0.00,Wunderground v.1.13,2013-01-27 17:00:00,
2013-01-27 12:05:00,19.8,3.2,30.46,SW,221,5.0,7.0,48,0.00,,,0.00,Wunderground v.1.13,2013-01-27 17:05:00,
2013-01-27 12:10:00,20.3,3.2,30.46,North,355,2.0,5.0,47,0.00,,,0.00,Wunderground v.1.13,2013-01-27 17:10:00,
2013-01-27 12:15:00,20.9,2.9,30.47,NNW,336,4.0,4.0,45,0.00,,,0.00,Wunderground v.1.13,2013-01-27 17:15:00,
2013-01-27 12:20:00,21.0,2.5,30.47,West,261,2.0,8.0,44,0.00,,,0.00,Wunderground v.1.13,2013-01-27 17:20:00,
2013-01-27 12:26:00,21.3,2.7,30.47,West,274,4.0,6.0,44,0.00,,,0.00,Wunderground v.1.13,2013-01-27 17:26:00,
2013-01-27 12:31:00,21.1,2.1,30.47,NW,325,2.0,6.0,43,0.00,,,0.00,Wunderground v.1.13,2013-01-27 17:31:00,
2013-01-27 12:36:00,21.2,2.2,30.47,NW,315,4.0,6.0,43,0.00,,,0.00,Wunderground v.1.13,2013-01-27 17:36:00,
2013-01-27 12:41:00,21.2,3.1,30.46,West,271,5.0,5.0,45,0.00,,,0.00,Wunderground v.1.13,2013-01-27 17:41:00,
2013-01-27 12:46:00,20.7,3.6,30.46,WSW,254,6.0,6.0,47,0.00,,,0.00,Wunderground v.1.13,2013-01-27 17:46:00,
2013-01-27 12:51:00,20.4,2.9,30.46,West,268,4.0,10.0,46,0.00,,,0.00,Wunderground v.1.13,2013-01-27 17:51:00,
2013-01-27 12:56:00,20.6,4.0,30.46,West,267,5.0,6.0,48,0.00,,,0.00,Wunderground v.1.13,2013-01-27 17:56:00,
2013-01-27 13:01:00,20.9,3.8,30.46,WSW,249,5.0,5.0,47,0.00,,,0.00,Wunderground v.1.13,2013-01-27 18:01:00,
2013-01-27 13:06:00,21.1,4.0,30.45,West,273,1.0,6.0,47,0.00,,,0.00,Wunderground v.1.13,2013-01-27 18:06:00,
2013-01-27 13:12:00,21.2,5.0,30.45,West,275,1.0,4.0,49,0.00,,,0.00,Wunderground v.1.13,2013-01-27 18:12:00,
2013-01-27 13:18:00,21.5,3.9,30.45,NNW,341,3.0,5.0,46,0.00,,,0.00,Wunderground v.1.13,2013-01-27 18:18:00,
2013-01-27 13:24:00,21.3,3.7,30.45,West,273,3.0,10.0,46,0.00,,,0.00,Wunderground v.1.13,2013-01-27 18:24:00,
2013-01-27 13:29:00,21.6,4.0,30.46,WSW,248,8.0,10.0,46,0.00,,,0.00,Wunderground v.1.13,2013-01-27 18:29:00,
2013-01-27 13:35:00,21.4,3.3,30.46,WNW,300,2.0,3.0,45,0.00,,,0.00,Wunderground v.1.13,2013-01-27 18:35:00,
2013-01-27 13:40:00,21.3,3.7,30.46,West,275,4.0,4.0,46,0.00,,,0.00,Wunderground v.1.13,2013-01-27 18:40:00,
2013-01-27 13:45:00,20.9,3.3,30.46,WSW,257,5.0,6.0,46,0.00,,,0.00,Wunderground v.1.13,2013-01-27 18:45:00,
2013-01-27 13:50:00,20.6,3.5,30.47,WNW,298,2.0,5.0,47,0.00,,,0.00,Wunderground v.1.13,2013-01-27 18:50:00,
2013-01-27 13:55:00,20.7,3.6,30.47,WSW,237,5.0,6.0,47,0.00,,,0.00,Wunderground v.1.13,2013-01-27 18:55:00,
2013-01-27 14:01:00,20.9,3.3,30.46,WNW,286,4.0,4.0,46,0.00,,,0.00,Wunderground v.1.13,2013-01-27 19:01:00,
2013-01-27 14:06:00,21.0,3.4,30.46,NW,306,2.0,5.0,46,0.00,,,0.00,Wunderground v.1.13,2013-01-27 19:06:00,
2013-01-27 14:11:00,21.1,3.0,30.46,WSW,240,4.0,5.0,45,0.00,,,0.00,Wunderground v.1.13,2013-01-27 19:11:00,
2013-01-27 14:16:00,20.9,3.3,30.46,West,272,1.0,4.0,46,0.00,,,0.00,Wunderground v.1.13,2013-01-27 19:16:00,
2013-01-27 14:21:00,20.9,3.3,30.45,West,262,2.0,4.0,46,0.00,,,0.00,Wunderground v.1.13,2013-01-27 19:21:00,
2013-01-27 14:26:00,20.9,2.9,30.45,West,259,5.0,5.0,45,0.00,,,0.00,Wunderground v.1.13,2013-01-27 19:26:00,
2013-01-27 14:31:00,21.1,3.5,30.45,West,259,2.0,3.0,46,0.00,,,0.00,Wunderground v.1.13,2013-01-27 19:31:00,
2013-01-27 14:36:00,21.1,3.0,30.45,WNW,284,2.0,3.0,45,0.00,,,0.00,Wunderground v.1.13,2013-01-27 19:36:00,
2013-01-27 14:41:00,21.2,3.1,30.45,SSW,208,5.0,5.0,45,0.00,,,0.00,Wunderground v.1.13,2013-01-27 19:41:00,
2013-01-27 14:47:00,21.5,2.9,30.44,West,259,2.0,3.0,44,0.00,,,0.00,Wunderground v.1.13,2013-01-27 19:47:00,
2013-01-27 14:52:00,21.7,3.1,30.44,WNW,299,2.0,3.0,44,0.00,,,0.00,Wunderground v.1.13,2013-01-27 19:52:00,
2013-01-27 14:57:00,22.0,2.9,30.44,WSW,246,2.0,4.0,43,0.00,,,0.00,Wunderground v.1.13,2013-01-27 19:57:00,
2013-01-27 15:03:00,21.8,2.7,30.45,West,260,4.0,9.0,43,0.00,,,0.00,Wunderground v.1.13,2013-01-27 20:03:00,
2013-01-27 15:09:00,21.6,2.0,30.45,West,262,4.0,4.0,42,0.00,,,0.00,Wunderground v.1.13,2013-01-27 20:09:00,
2013-01-27 15:14:00,21.3,2.7,30.45,West,265,2.0,3.0,44,0.00,,,0.00,Wunderground v.1.13,2013-01-27 20:14:00,
2013-01-27 15:19:00,21.3,2.2,30.45,West,264,4.0,4.0,43,0.00,,,0.00,Wunderground v.1.13,2013-01-27 20:19:00,
2013-01-27 15:25:00,21.0,2.5,30.45,WSW,254,3.0,4.0,44,0.00,,,0.00,Wunderground v.1.13,2013-01-27 20:25:00,
2013-01-27 15:30:00,20.7,1.7,30.45,WSW,257,5.0,5.0,43,0.00,,,0.00,Wunderground v.1.13,2013-01-27 20:30:00,
2013-01-27 15:35:00,20.6,1.6,30.45,West,265,1.0,10.0,43,0.00,,,0.00,Wunderground v.1.13,2013-01-27 20:35:00,
2013-01-27 15:40:00,20.3,1.8,30.45,West,261,3.0,4.0,44,0.00,,,0.00,Wunderground v.1.13,2013-01-27 20:40:00,
2013-01-27 15:46:00,20.1,1.6,30.45,West,267,2.0,6.0,44,0.00,,,0.00,Wunderground v.1.13,2013-01-27 20:46:00,
2013-01-27 15:51:00,19.8,1.8,30.45,West,277,2.0,3.0,45,0.00,,,0.00,Wunderground v.1.13,2013-01-27 20:51:00,
2013-01-27 15:56:00,19.8,1.8,30.45,WSW,252,2.0,4.0,45,0.00,,,0.00,Wunderground v.1.13,2013-01-27 20:56:00,
2013-01-27 16:01:00,19.7,2.2,30.46,WSW,247,5.0,7.0,46,0.00,,,0.00,Wunderground v.1.13,2013-01-27 21:01:00,
2013-01-27 16:06:00,19.7,1.8,30.46,WNW,282,6.0,6.0,45,0.00,,,0.00,Wunderground v.1.13,2013-01-27 21:06:00,
2013-01-27 16:11:00,19.5,1.6,30.47,West,265,3.0,6.0,45,0.00,,,0.00,Wunderground v.1.13,2013-01-27 21:11:00,
2013-01-27 16:17:00,19.4,2.0,30.47,WSW,241,3.0,7.0,46,0.00,,,0.00,Wunderground v.1.13,2013-01-27 21:17:00,
2013-01-27 16:22:00,19.1,2.1,30.47,SW,223,3.0,7.0,47,0.00,,,0.00,Wunderground v.1.13,2013-01-27 21:22:00,
2013-01-27 16:28:00,18.9,2.0,30.47,WSW,257,1.0,8.0,47,0.00,,,0.00,Wunderground v.1.13,2013-01-27 21:28:00,
2013-01-27 16:33:00,18.7,2.2,30.47,SW,230,5.0,6.0,48,0.00,,,0.00,Wunderground v.1.13,2013-01-27 21:33:00,
2013-01-27 16:38:00,18.5,2.5,30.48,South,185,1.0,5.0,49,0.00,,,0.00,Wunderground v.1.13,2013-01-27 21:38:00,
2013-01-27 16:43:00,18.4,2.4,30.48,SW,230,0.0,4.0,49,0.00,,,0.00,Wunderground v.1.13,2013-01-27 21:43:00,
2013-01-27 16:49:00,18.4,2.4,30.49,West,277,1.0,2.0,49,0.00,,,0.00,Wunderground v.1.13,2013-01-27 21:49:00,
2013-01-27 16:54:00,18.4,2.8,30.49,NW,306,0.0,1.0,50,0.00,,,0.00,Wunderground v.1.13,2013-01-27 21:54:00,
2013-01-27 16:59:00,18.3,3.6,30.48,SSE,147,2.0,2.0,52,0.00,,,0.00,Wunderground v.1.13,2013-01-27 21:59:00,
2013-01-27 17:05:00,17.9,3.2,30.48,SE,142,1.0,1.0,52,0.00,,,0.00,Wunderground v.1.13,2013-01-27 22:05:00,
2013-01-27 17:10:00,17.6,2.9,30.48,WSW,243,2.0,2.0,52,0.00,,,0.00,Wunderground v.1.13,2013-01-27 22:10:00,
2013-01-27 17:15:00,17.2,3.4,30.48,West,267,2.0,2.0,54,0.00,,,0.00,Wunderground v.1.13,2013-01-27 22:15:00,
2013-01-27 17:20:00,16.7,2.9,30.49,SW,227,2.0,2.0,54,0.00,,,0.00,Wunderground v.1.13,2013-01-27 22:20:00,
2013-01-27 17:25:00,16.6,2.8,30.49,SSW,212,2.0,2.0,54,0.00,,,0.00,Wunderground v.1.13,2013-01-27 22:25:00,
2013-01-27 17:30:00,16.9,2.7,30.49,SSW,211,1.0,1.0,53,0.00,,,0.00,Wunderground v.1.13,2013-01-27 22:30:00,
2013-01-27 17:35:00,16.8,3.4,30.49,South,180,1.0,1.0,55,0.00,,,0.00,Wunderground v.1.13,2013-01-27 22:35:00,
2013-01-27 17:40:00,16.4,3.0,30.49,SSW,211,2.0,2.0,55,0.00,,,0.00,Wunderground v.1.13,2013-01-27 22:40:00,
2013-01-27 17:45:00,16.6,2.8,30.50,South,177,3.0,3.0,54,0.00,,,0.00,Wunderground v.1.13,2013-01-27 22:45:00,
2013-01-27 17:50:00,16.6,4.0,30.50,South,191,0.0,1.0,57,0.00,,,0.00,Wunderground v.1.13,2013-01-27 22:50:00,
2013-01-27 17:55:00,16.3,3.3,30.50,SSE,148,1.0,2.0,56,0.00,,,0.00,Wunderground v.1.13,2013-01-27 22:55:00,
2013-01-27 18:00:00,16.0,3.4,30.49,SSE,148,1.0,1.0,57,0.00,,,0.00,Wunderground v.1.13,2013-01-27 23:00:00,
2013-01-27 18:05:00,15.7,3.5,30.49,SSE,167,1.0,2.0,58,0.00,,,0.00,Wunderground v.1.13,2013-01-27 23:05:00,
2013-01-27 18:10:00,15.7,3.1,30.49,South,187,0.0,1.0,57,0.00,,,0.00,Wunderground v.1.13,2013-01-27 23:10:00,
2013-01-27 18:15:00,15.7,3.5,30.49,SW,221,1.0,3.0,58,0.00,,,0.00,Wunderground v.1.13,2013-01-27 23:15:00,
2013-01-27 18:20:00,15.2,3.8,30.49,SW,216,0.0,1.0,60,0.00,,,0.00,Wunderground v.1.13,2013-01-27 23:20:00,
2013-01-27 18:25:00,15.2,4.1,30.50,SW,216,0.0,1.0,61,0.00,,,0.00,Wunderground v.1.13,2013-01-27 23:25:00,
2013-01-27 18:32:00,14.9,3.5,30.50,SE,131,1.0,2.0,60,0.00,,,0.00,Wunderground v.1.13,2013-01-27 23:32:00,
2013-01-27 18:37:00,14.5,3.5,30.50,SE,140,1.0,2.0,61,0.00,,,0.00,Wunderground v.1.13,2013-01-27 23:37:00,
2013-01-27 18:42:00,14.5,3.5,30.50,SE,144,1.0,1.0,61,0.00,,,0.00,Wunderground v.1.13,2013-01-27 23:42:00,
2013-01-27 18:47:00,14.3,3.6,30.50,SE,143,0.0,1.0,62,0.00,,,0.00,Wunderground v.1.13,2013-01-27 23:47:00,
2013-01-27 18:52:00,14.4,4.1,30.49,SE,144,2.0,2.0,63,0.00,,,0.00,Wunderground v.1.13,2013-01-27 23:52:00,
2013-01-27 18:57:00,14.4,3.7,30.49,SW,232,0.0,3.0,62,0.00,,,0.00,Wunderground v.1.13,2013-01-27 23:57:00,
2013-01-27 19:02:00,14.2,4.2,30.50,SW,232,1.0,3.0,64,0.00,,,0.00,Wunderground v.1.13,2013-01-28 00:02:00,
2013-01-27 19:07:00,14.4,3.7,30.50,South,182,1.0,2.0,62,0.00,,,0.00,Wunderground v.1.13,2013-01-28 00:07:00,
2013-01-27 19:12:00,14.9,3.5,30.50,SW,219,1.0,4.0,60,0.00,,,0.00,Wunderground v.1.13,2013-01-28 00:12:00,
2013-01-27 19:17:00,15.6,3.1,30.50,West,272,3.0,5.0,57,0.00,,,0.00,Wunderground v.1.13,2013-01-28 00:17:00,
2013-01-27 19:22:00,16.2,2.8,30.50,SW,229,1.0,3.0,55,0.00,,,0.00,Wunderground v.1.13,2013-01-28 00:22:00,
2013-01-27 19:27:00,16.5,2.7,30.50,West,263,1.0,5.0,54,0.00,,,0.00,Wunderground v.1.13,2013-01-28 00:27:00,
2013-01-27 19:32:00,16.5,2.7,30.50,WNW,284,1.0,2.0,54,0.00,,,0.00,Wunderground v.1.13,2013-01-28 00:32:00,
2013-01-27 19:37:00,16.5,2.7,30.49,WSW,255,2.0,4.0,54,0.00,,,0.00,Wunderground v.1.13,2013-01-28 00:37:00,
2013-01-27 19:42:00,16.2,2.8,30.48,WSW,246,1.0,4.0,55,0.00,,,0.00,Wunderground v.1.13,2013-01-28 00:42:00,
2013-01-27 19:47:00,15.9,3.0,30.48,West,275,3.0,5.0,56,0.00,,,0.00,Wunderground v.1.13,2013-01-28 00:47:00,
2013-01-27 19:53:00,15.8,3.2,30.47,West,275,4.0,6.0,57,0.00,,,0.00,Wunderground v.1.13,2013-01-28 00:53:00,
2013-01-27 19:58:00,15.8,3.2,30.47,WSW,244,0.0,9.0,57,0.00,,,0.00,Wunderground v.1.13,2013-01-28 00:58:00,
2013-01-27 20:04:00,15.6,3.4,30.47,NE,49,1.0,3.0,58,0.00,,,0.00,Wunderground v.1.13,2013-01-28 01:04:00,
2013-01-27 20:09:00,15.5,3.7,30.48,NE,49,0.0,1.0,59,0.00,,,0.00,Wunderground v.1.13,2013-01-28 01:09:00,
2013-01-27 20:14:00,15.3,3.5,30.47,East,82,0.0,0.0,59,0.00,,,0.00,Wunderground v.1.13,2013-01-28 01:14:00,
2013-01-27 20:20:00,15.2,3.8,30.46,East,82,0.0,0.0,60,0.00,,,0.00,Wunderground v.1.13,2013-01-28 01:20:00,
2013-01-27 20:25:00,14.9,4.2,30.46,East,82,0.0,0.0,62,0.00,,,0.00,Wunderground v.1.13,2013-01-28 01:25:00,
2013-01-27 20:30:00,14.5,3.8,30.47,East,82,0.0,0.0,62,0.00,,,0.00,Wunderground v.1.13,2013-01-28 01:30:00,
2013-01-27 20:35:00,14.0,3.7,30.47,East,82,0.0,1.0,63,0.00,,,0.00,Wunderground v.1.13,2013-01-28 01:35:00,
2013-01-27 20:40:00,13.5,3.9,30.48,East,82,1.0,2.0,65,0.00,,,0.00,Wunderground v.1.13,2013-01-28 01:40:00,
2013-01-27 20:45:00,13.0,4.1,30.48,East,82,0.0,0.0,67,0.00,,,0.00,Wunderground v.1.13,2013-01-28 01:45:00,
2013-01-27 20:50:00,12.7,4.1,30.47,East,82,0.0,1.0,68,0.00,,,0.00,Wunderground v.1.13,2013-01-28 01:50:00,
2013-01-27 20:55:00,12.5,3.9,30.48,SSE,157,1.0,2.0,68,0.00,,,0.00,Wunderground v.1.13,2013-01-28 01:55:00,
2013-01-27 21:00:00,12.3,3.4,30.48,South,189,0.0,1.0,67,0.00,,,0.00,Wunderground v.1.13,2013-01-28 02:00:00,
2013-01-27 21:05:00,12.2,3.6,30.47,South,191,0.0,1.0,68,0.00,,,0.00,Wunderground v.1.13,2013-01-28 02:05:00,
2013-01-27 21:10:00,12.1,3.9,30.47,South,191,0.0,0.0,69,0.00,,,0.00,Wunderground v.1.13,2013-01-28 02:10:00,
2013-01-27 21:15:00,11.9,4.0,30.47,South,191,0.0,0.0,70,0.00,,,0.00,Wunderground v.1.13,2013-01-28 02:15:00,
2013-01-27 21:20:00,11.6,3.7,30.47,South,191,0.0,1.0,70,0.00,,,0.00,Wunderground v.1.13,2013-01-28 02:20:00,
2013-01-27 21:26:00,11.4,3.8,30.47,ESE,119,2.0,3.0,71,0.00,,,0.00,Wunderground v.1.13,2013-01-28 02:26:00,
2013-01-27 21:31:00,11.0,3.4,30.47,WSW,250,0.0,2.0,71,0.00,,,0.00,Wunderground v.1.13,2013-01-28 02:31:00,
2013-01-27 21:36:00,10.8,3.5,30.48,WSW,250,0.0,1.0,72,0.00,,,0.00,Wunderground v.1.13,2013-01-28 02:36:00,
2013-01-27 21:41:00,10.7,3.7,30.48,WSW,250,0.0,2.0,73,0.00,,,0.00,Wunderground v.1.13,2013-01-28 02:41:00,
2013-01-27 21:46:00,10.5,3.3,30.48,WSW,250,0.0,0.0,72,0.00,,,0.00,Wunderground v.1.13,2013-01-28 02:46:00,
2013-01-27 21:51:00,10.4,3.5,30.48,WSW,250,0.0,0.0,73,0.00,,,0.00,Wunderground v.1.13,2013-01-28 02:51:00,
2013-01-27 21:56:00,10.3,3.4,30.49,WSW,250,0.0,1.0,73,0.00,,,0.00,Wunderground v.1.13,2013-01-28 02:56:00,
2013-01-27 22:01:00,10.2,3.6,30.48,WSW,250,0.0,2.0,74,0.00,,,0.00,Wunderground v.1.13,2013-01-28 03:01:00,
2013-01-27 22:06:00,10.0,3.7,30.48,East,93,3.0,3.0,75,0.00,,,0.00,Wunderground v.1.13,2013-01-28 03:06:00,
2013-01-27 22:11:00,9.9,3.6,30.49,ESE,111,1.0,1.0,75,0.00,,,0.00,Wunderground v.1.13,2013-01-28 03:11:00,
2013-01-27 22:16:00,10.0,3.7,30.49,West,259,2.0,2.0,75,0.00,,,0.00,Wunderground v.1.13,2013-01-28 03:16:00,
2013-01-27 22:22:00,10.0,3.7,30.49,West,261,2.0,3.0,75,0.00,,,0.00,Wunderground v.1.13,2013-01-28 03:22:00,
2013-01-27 22:27:00,9.9,3.6,30.49,West,261,0.0,0.0,75,0.00,,,0.00,Wunderground v.1.13,2013-01-28 03:27:00,
2013-01-27 22:32:00,9.8,3.2,30.49,West,261,0.0,0.0,74,0.00,,,0.00,Wunderground v.1.13,2013-01-28 03:32:00,
2013-01-27 22:37:00,9.7,3.1,30.49,West,261,1.0,2.0,74,0.00,,,0.00,Wunderground v.1.13,2013-01-28 03:37:00,
2013-01-27 22:42:00,9.6,3.3,30.49,West,261,1.0,1.0,75,0.00,,,0.00,Wunderground v.1.13,2013-01-28 03:42:00,
2013-01-27 22:47:00,9.7,3.4,30.50,West,266,1.0,2.0,75,0.00,,,0.00,Wunderground v.1.13,2013-01-28 03:47:00,
2013-01-27 22:52:00,9.7,3.4,30.49,West,266,0.0,1.0,75,0.00,,,0.00,Wunderground v.1.13,2013-01-28 03:52:00,
2013-01-27 22:57:00,9.5,3.2,30.48,West,266,0.0,2.0,75,0.00,,,0.00,Wunderground v.1.13,2013-01-28 03:57:00,
2013-01-27 23:02:00,9.3,3.0,30.48,West,266,0.0,1.0,75,0.00,,,0.00,Wunderground v.1.13,2013-01-28 04:02:00,
2013-01-27 23:08:00,9.2,3.2,30.47,WSW,252,2.0,3.0,76,0.00,,,0.00,Wunderground v.1.13,2013-01-28 04:08:00,
2013-01-27 23:13:00,9.0,2.7,30.48,WSW,252,3.0,3.0,75,0.00,,,0.00,Wunderground v.1.13,2013-01-28 04:13:00,
2013-01-27 23:18:00,8.9,2.9,30.48,WSW,252,1.0,3.0,76,0.00,,,0.00,Wunderground v.1.13,2013-01-28 04:18:00,
2013-01-27 23:23:00,8.9,2.9,30.48,WSW,252,1.0,2.0,76,0.00,,,0.00,Wunderground v.1.13,2013-01-28 04:23:00,
2013-01-27 23:28:00,9.0,2.7,30.48,WSW,252,0.0,1.0,75,0.00,,,0.00,Wunderground v.1.13,2013-01-28 04:28:00,
2013-01-27 23:33:00,9.1,3.1,30.48,WSW,252,0.0,1.0,76,0.00,,,0.00,Wunderground v.1.13,2013-01-28 04:33:00,
2013-01-27 23:38:00,9.0,2.7,30.48,WSW,252,0.0,1.0,75,0.00,,,0.00,Wunderground v.1.13,2013-01-28 04:38:00,
2013-01-27 23:43:00,8.8,2.5,30.48,WSW,252,0.0,2.0,75,0.00,,,0.00,Wunderground v.1.13,2013-01-28 04:43:00,
2013-01-27 23:48:00,8.5,2.2,30.48,WSW,252,0.0,0.0,75,0.00,,,0.00,Wunderground v.1.13,2013-01-28 04:48:00,
2013-01-27 23:53:00,8.4,2.4,30.48,WSW,252,0.0,1.0,76,0.00,,,0.00,Wunderground v.1.13,2013-01-28 04:53:00,
2013-01-27 23:58:00,8.0,2.0,30.49,WSW,252,0.0,1.0,76,0.00,,,0.00,Wunderground v.1.13,2013-01-28 04:58:00,